createdAt,value
2022-11-29T00:00:03.798Z,1015.51
2022-11-29T00:00:34.677Z,1015.51
2022-11-29T00:01:05.226Z,1015.41
2022-11-29T00:02:08.702Z,1015.61
2022-11-29T00:02:39.195Z,1015.61
2022-11-29T00:03:10.060Z,1015.61
2022-11-29T00:03:40.878Z,1015.61
2022-11-29T00:04:11.818Z,1015.51
2022-11-29T00:04:42.817Z,1015.31
2022-11-29T00:05:13.420Z,1015.31
2022-11-29T00:05:44.304Z,1015.41
2022-11-29T00:06:15.510Z,1015.41
2022-11-29T00:06:46.391Z,1015.51
2022-11-29T00:07:18.771Z,1015.51
2022-11-29T00:07:49.000Z,1015.31
2022-11-29T00:08:19.823Z,1015.31
2022-11-29T00:08:51.097Z,1015.81
2022-11-29T00:09:21.759Z,1015.81
2022-11-29T00:09:52.481Z,1015.41
2022-11-29T00:10:25.193Z,1015.41
2022-11-29T00:10:54.409Z,1015.61
2022-11-29T00:11:26.606Z,1015.61
2022-11-29T00:11:56.242Z,1015.51
2022-11-29T00:12:27.841Z,1015.51
2022-11-29T00:12:59.602Z,1015.41
2022-11-29T00:13:46.456Z,1015.41
2022-11-29T00:14:00.902Z,1015.41
2022-11-29T00:14:31.825Z,1015.41
2022-11-29T00:15:02.978Z,1015.61
2022-11-29T00:15:33.525Z,1015.61
2022-11-29T00:16:04.387Z,1015.61
2022-11-29T00:16:35.640Z,1015.61
2022-11-29T00:17:06.252Z,1015.51
2022-11-29T00:17:37.734Z,1015.51
2022-11-29T00:18:08.947Z,1015.41
2022-11-29T00:18:40.025Z,1015.41
2022-11-29T00:19:11.073Z,1015.51
2022-11-29T00:19:41.892Z,1015.51
2022-11-29T00:20:43.467Z,1015.41
2022-11-29T00:21:14.354Z,1015.41
2022-11-29T00:21:45.493Z,1015.31
2022-11-29T00:22:16.530Z,1015.31
2022-11-29T00:22:47.592Z,1015.41
2022-11-29T00:23:19.346Z,1015.41
2022-11-29T00:23:50.360Z,1015.61
2022-11-29T00:24:21.228Z,1015.61
2022-11-29T00:24:51.855Z,1015.51
2022-11-29T00:25:22.428Z,1015.51
2022-11-29T00:25:53.828Z,1015.20
2022-11-29T00:26:24.591Z,1015.20
2022-11-29T00:26:55.731Z,1015.31
2022-11-29T00:27:26.550Z,1015.31
2022-11-29T00:27:58.053Z,1015.41
2022-11-29T00:28:59.906Z,1015.31
2022-11-29T00:29:31.119Z,1015.31
2022-11-29T00:30:02.077Z,1015.41
2022-11-29T00:30:32.553Z,1015.41
2022-11-29T00:31:03.503Z,1015.20
2022-11-29T00:31:34.699Z,1015.20
2022-11-29T00:32:05.657Z,1015.31
2022-11-29T00:32:36.486Z,1015.31
2022-11-29T00:33:08.269Z,1015.41
2022-11-29T00:33:39.698Z,1015.41
2022-11-29T00:34:10.471Z,1015.41
2022-11-29T00:34:40.790Z,1015.41
2022-11-29T00:35:12.015Z,1015.41
2022-11-29T00:35:42.464Z,1015.51
2022-11-29T00:36:13.360Z,1015.51
2022-11-29T00:36:44.333Z,1015.41
2022-11-29T00:37:15.450Z,1015.41
2022-11-29T00:37:46.831Z,1015.41
2022-11-29T00:38:18.288Z,1015.41
2022-11-29T00:38:49.512Z,1015.41
2022-11-29T00:39:20.033Z,1015.41
2022-11-29T00:39:50.946Z,1015.41
2022-11-29T00:40:22.246Z,1015.41
2022-11-29T00:40:52.754Z,1015.10
2022-11-29T00:41:33.438Z,1015.10
2022-11-29T00:41:55.324Z,1015.41
2022-11-29T00:42:25.543Z,1015.41
2022-11-29T00:42:58.079Z,1015.20
2022-11-29T00:43:28.029Z,1015.20
2022-11-29T00:43:59.578Z,1015.41
2022-11-29T00:44:30.043Z,1015.41
2022-11-29T00:45:01.189Z,1015.20
2022-11-29T00:45:31.998Z,1015.20
2022-11-29T00:46:02.899Z,1015.20
2022-11-29T00:46:33.311Z,1015.20
2022-11-29T00:47:04.656Z,1015.41
2022-11-29T00:47:35.640Z,1015.41
2022-11-29T00:48:06.601Z,1015.20
2022-11-29T00:48:37.503Z,1015.20
2022-11-29T00:49:09.277Z,1015.20
2022-11-29T00:49:40.015Z,1015.20
2022-11-29T00:50:22.425Z,1015.31
2022-11-29T00:50:42.422Z,1015.20
2022-11-29T00:51:13.107Z,1015.20
2022-11-29T00:51:43.696Z,1015.41
2022-11-29T00:52:14.645Z,1015.41
2022-11-29T00:52:45.590Z,1015.41
2022-11-29T00:53:17.811Z,1015.41
2022-11-29T00:53:47.677Z,1015.31
2022-11-29T00:54:19.193Z,1015.31
2022-11-29T00:54:50.305Z,1015.41
2022-11-29T00:55:21.630Z,1015.41
2022-11-29T00:55:52.025Z,1015.20
2022-11-29T00:56:22.707Z,1015.20
2022-11-29T00:56:53.730Z,1015.31
2022-11-29T00:57:43.319Z,1015.31
2022-11-29T00:57:56.106Z,1015.31
2022-11-29T00:58:26.573Z,1015.31
2022-11-29T00:58:57.464Z,1015.20
2022-11-29T00:59:29.585Z,1015.20
2022-11-29T01:00:01.214Z,1015.10
2022-11-29T01:00:32.104Z,1015.10
2022-11-29T01:01:02.482Z,1015.41
2022-11-29T01:01:33.185Z,1015.41
2022-11-29T01:02:03.699Z,1015.20
2022-11-29T01:02:34.746Z,1015.20
2022-11-29T01:03:05.552Z,1015.41
2022-11-29T01:03:36.649Z,1015.41
2022-11-29T01:04:07.872Z,1015.31
2022-11-29T01:04:39.462Z,1015.31
2022-11-29T01:05:10.597Z,1015.20
2022-11-29T01:05:57.801Z,1015.41
2022-11-29T01:06:12.006Z,1015.41
2022-11-29T01:06:43.038Z,1015.31
2022-11-29T01:07:13.928Z,1015.31
2022-11-29T01:07:44.764Z,1015.41
2022-11-29T01:08:15.707Z,1015.41
2022-11-29T01:09:03.748Z,1015.31
2022-11-29T01:09:17.601Z,1015.31
2022-11-29T01:09:49.773Z,1015.41
2022-11-29T01:10:21.384Z,1015.41
2022-11-29T01:10:51.227Z,1015.31
2022-11-29T01:11:23.097Z,1015.31
2022-11-29T01:11:52.946Z,1015.41
2022-11-29T01:12:23.927Z,1015.41
2022-11-29T01:13:26.228Z,1015.51
2022-11-29T01:13:56.493Z,1015.51
2022-11-29T01:14:27.758Z,1015.51
2022-11-29T01:14:59.601Z,1015.20
2022-11-29T01:15:31.639Z,1015.20
2022-11-29T01:16:01.496Z,1015.31
2022-11-29T01:16:32.247Z,1015.31
2022-11-29T01:17:03.099Z,1015.31
2022-11-29T01:17:42.675Z,1015.41
2022-11-29T01:18:04.767Z,1015.41
2022-11-29T01:18:36.084Z,1015.41
2022-11-29T01:19:06.807Z,1015.41
2022-11-29T01:19:47.819Z,1015.31
2022-11-29T01:20:09.339Z,1015.31
2022-11-29T01:21:11.256Z,1015.51
2022-11-29T01:21:42.531Z,1015.31
2022-11-29T01:22:13.329Z,1015.31
2022-11-29T01:22:43.837Z,1015.20
2022-11-29T01:23:14.689Z,1015.20
2022-11-29T01:23:45.842Z,1015.51
2022-11-29T01:24:16.579Z,1015.51
2022-11-29T01:24:48.018Z,1015.41
2022-11-29T01:25:19.797Z,1015.41
2022-11-29T01:25:50.796Z,1015.20
2022-11-29T01:26:21.588Z,1015.20
2022-11-29T01:26:52.390Z,1015.51
2022-11-29T01:27:23.314Z,1015.51
2022-11-29T01:27:53.917Z,1015.41
2022-11-29T01:28:24.634Z,1015.41
2022-11-29T01:28:55.785Z,1015.41
2022-11-29T01:29:26.728Z,1015.41
2022-11-29T01:29:58.955Z,1015.71
2022-11-29T01:30:29.720Z,1015.71
2022-11-29T01:31:01.056Z,1015.51
2022-11-29T01:31:32.254Z,1015.51
2022-11-29T01:32:02.671Z,1015.41
2022-11-29T01:32:33.180Z,1015.41
2022-11-29T01:33:04.361Z,1015.51
2022-11-29T01:33:34.836Z,1015.51
2022-11-29T01:34:06.023Z,1015.51
2022-11-29T01:34:36.915Z,1015.51
2022-11-29T01:35:08.542Z,1015.61
2022-11-29T01:35:39.282Z,1015.61
2022-11-29T01:36:11.430Z,1015.51
2022-11-29T01:36:41.897Z,1015.51
2022-11-29T01:37:11.986Z,1015.41
2022-11-29T01:37:43.380Z,1015.51
2022-11-29T01:38:13.830Z,1015.51
2022-11-29T01:38:44.910Z,1015.71
2022-11-29T01:39:15.599Z,1015.71
2022-11-29T01:39:46.886Z,1015.51
2022-11-29T01:40:18.384Z,1015.51
2022-11-29T01:40:48.916Z,1015.71
2022-11-29T01:41:21.037Z,1015.71
2022-11-29T01:42:08.202Z,1015.51
2022-11-29T01:42:22.135Z,1015.51
2022-11-29T01:42:53.665Z,1015.61
2022-11-29T01:43:24.064Z,1015.61
2022-11-29T01:43:55.543Z,1015.51
2022-11-29T01:45:02.806Z,1015.61
2022-11-29T01:45:28.014Z,1015.61
2022-11-29T01:45:59.068Z,1015.51
2022-11-29T01:46:30.914Z,1015.51
2022-11-29T01:47:01.517Z,1015.51
2022-11-29T01:47:32.796Z,1015.51
2022-11-29T01:48:03.835Z,1015.51
2022-11-29T01:48:33.992Z,1015.51
2022-11-29T01:49:04.796Z,1015.51
2022-11-29T01:49:36.016Z,1015.51
2022-11-29T01:50:07.569Z,1015.61
2022-11-29T01:50:37.729Z,1015.61
2022-11-29T01:51:09.667Z,1015.61
2022-11-29T01:51:40.398Z,1015.61
2022-11-29T01:52:11.567Z,1015.61
2022-11-29T01:52:42.290Z,1015.61
2022-11-29T01:53:13.360Z,1015.61
2022-11-29T01:53:43.990Z,1015.41
2022-11-29T01:54:14.678Z,1015.41
2022-11-29T01:54:46.094Z,1015.61
2022-11-29T01:55:16.731Z,1015.61
2022-11-29T01:55:48.030Z,1015.61
2022-11-29T01:56:27.452Z,1015.61
2022-11-29T01:56:50.732Z,1015.61
2022-11-29T01:57:21.454Z,1015.61
2022-11-29T01:57:52.440Z,1015.61
2022-11-29T01:58:23.468Z,1015.61
2022-11-29T01:58:53.957Z,1015.51
2022-11-29T01:59:25.185Z,1015.51
2022-11-29T01:59:56.128Z,1015.71
2022-11-29T02:00:26.965Z,1015.71
2022-11-29T02:00:58.072Z,1015.51
2022-11-29T02:01:29.122Z,1015.51
2022-11-29T02:02:01.307Z,1015.61
2022-11-29T02:02:31.461Z,1015.61
2022-11-29T02:03:07.823Z,1015.51
2022-11-29T02:03:33.510Z,1015.51
2022-11-29T02:04:04.169Z,1015.61
2022-11-29T02:04:35.153Z,1015.61
2022-11-29T02:05:06.431Z,1015.51
2022-11-29T02:05:37.016Z,1015.51
2022-11-29T02:06:08.132Z,1015.81
2022-11-29T02:06:39.356Z,1015.81
2022-11-29T02:07:11.959Z,1015.61
2022-11-29T02:07:58.426Z,1015.31
2022-11-29T02:08:13.060Z,1015.31
2022-11-29T02:08:43.408Z,1015.41
2022-11-29T02:09:32.182Z,1015.41
2022-11-29T02:09:44.949Z,1015.61
2022-11-29T02:10:16.217Z,1015.61
2022-11-29T02:10:47.347Z,1015.61
2022-11-29T02:11:18.087Z,1015.61
2022-11-29T02:11:48.830Z,1015.41
2022-11-29T02:12:20.994Z,1015.41
2022-11-29T02:12:52.314Z,1015.61
2022-11-29T02:13:23.827Z,1015.61
2022-11-29T02:13:53.357Z,1015.61
2022-11-29T02:14:24.180Z,1015.61
2022-11-29T02:14:54.758Z,1015.71
2022-11-29T02:15:26.331Z,1015.71
2022-11-29T02:15:57.000Z,1015.51
2022-11-29T02:16:28.928Z,1015.51
2022-11-29T02:16:58.915Z,1015.61
2022-11-29T02:17:31.647Z,1015.61
2022-11-29T02:18:02.313Z,1015.51
2022-11-29T02:18:32.374Z,1015.51
2022-11-29T02:19:03.526Z,1015.51
2022-11-29T02:19:33.957Z,1015.51
2022-11-29T02:20:05.524Z,1015.61
2022-11-29T02:20:39.919Z,1015.61
2022-11-29T02:21:07.047Z,1015.71
2022-11-29T02:21:38.121Z,1015.71
2022-11-29T02:22:08.791Z,1015.41
2022-11-29T02:22:41.321Z,1015.41
2022-11-29T02:23:12.434Z,1015.51
2022-11-29T02:23:42.737Z,1015.51
2022-11-29T02:24:13.598Z,1015.51
2022-11-29T02:25:15.022Z,1015.51
2022-11-29T02:25:46.171Z,1015.51
2022-11-29T02:26:17.071Z,1015.51
2022-11-29T02:26:48.014Z,1015.61
2022-11-29T02:27:19.093Z,1015.61
2022-11-29T02:27:51.687Z,1015.51
2022-11-29T02:28:21.754Z,1015.51
2022-11-29T02:28:52.872Z,1015.51
2022-11-29T02:29:23.798Z,1015.51
2022-11-29T02:29:54.062Z,1015.71
2022-11-29T02:30:25.314Z,1015.71
2022-11-29T02:30:56.066Z,1015.51
2022-11-29T02:31:27.117Z,1015.51
2022-11-29T02:31:57.929Z,1015.41
2022-11-29T02:32:29.054Z,1015.41
2022-11-29T02:33:01.559Z,1015.51
2022-11-29T02:33:32.523Z,1015.51
2022-11-29T02:34:03.366Z,1015.41
2022-11-29T02:34:33.766Z,1015.41
2022-11-29T02:35:05.718Z,1015.61
2022-11-29T02:35:35.844Z,1015.61
2022-11-29T02:36:06.786Z,1015.41
2022-11-29T02:36:37.364Z,1015.41
2022-11-29T02:37:11.542Z,1015.41
2022-11-29T02:37:38.994Z,1015.41
2022-11-29T02:38:11.998Z,1015.51
2022-11-29T02:38:42.662Z,1015.51
2022-11-29T02:39:12.713Z,1015.51
2022-11-29T02:39:43.272Z,1015.61
2022-11-29T02:40:14.780Z,1015.61
2022-11-29T02:40:45.280Z,1015.61
2022-11-29T02:41:16.138Z,1015.61
2022-11-29T02:41:46.894Z,1015.71
2022-11-29T02:42:18.166Z,1015.71
2022-11-29T02:42:55.821Z,1015.41
2022-11-29T02:43:25.822Z,1015.41
2022-11-29T02:43:52.066Z,1015.71
2022-11-29T02:44:22.471Z,1015.71
2022-11-29T02:44:53.655Z,1015.81
2022-11-29T02:45:24.565Z,1015.81
2022-11-29T02:45:55.022Z,1015.61
2022-11-29T02:46:25.961Z,1015.61
2022-11-29T02:47:28.135Z,1015.61
2022-11-29T02:48:01.307Z,1015.41
2022-11-29T02:48:31.175Z,1015.41
2022-11-29T02:49:02.038Z,1015.51
2022-11-29T02:50:03.928Z,1015.61
2022-11-29T02:50:34.261Z,1015.61
2022-11-29T02:51:05.168Z,1015.51
2022-11-29T02:51:36.231Z,1015.51
2022-11-29T02:52:07.176Z,1015.61
2022-11-29T02:52:38.516Z,1015.61
2022-11-29T02:53:09.129Z,1015.61
2022-11-29T02:53:41.220Z,1015.61
2022-11-29T02:54:12.087Z,1015.51
2022-11-29T02:54:43.087Z,1015.51
2022-11-29T02:55:13.576Z,1015.51
2022-11-29T02:55:44.271Z,1015.61
2022-11-29T02:56:15.101Z,1015.61
2022-11-29T02:56:46.178Z,1015.61
2022-11-29T02:57:17.314Z,1015.61
2022-11-29T02:57:48.278Z,1015.71
2022-11-29T02:58:19.175Z,1015.71
2022-11-29T02:58:50.914Z,1015.51
2022-11-29T02:59:22.007Z,1015.51
2022-11-29T02:59:52.957Z,1015.71
2022-11-29T03:00:24.726Z,1015.71
2022-11-29T03:00:55.242Z,1015.81
2022-11-29T03:01:25.397Z,1015.81
2022-11-29T03:01:56.502Z,1015.41
2022-11-29T03:02:27.075Z,1015.41
2022-11-29T03:02:58.377Z,1015.92
2022-11-29T03:03:33.718Z,1015.92
2022-11-29T03:04:01.440Z,1015.81
2022-11-29T03:04:32.036Z,1015.81
2022-11-29T03:05:19.827Z,1015.61
2022-11-29T03:05:34.085Z,1015.61
2022-11-29T03:06:04.599Z,1015.71
2022-11-29T03:06:35.884Z,1015.71
2022-11-29T03:07:06.710Z,1015.71
2022-11-29T03:07:37.428Z,1015.71
2022-11-29T03:08:08.500Z,1015.51
2022-11-29T03:08:39.317Z,1015.51
2022-11-29T03:09:11.400Z,1015.71
2022-11-29T03:09:42.424Z,1015.71
2022-11-29T03:10:13.477Z,1015.51
2022-11-29T03:10:48.106Z,1015.61
2022-11-29T03:11:16.969Z,1015.61
2022-11-29T03:11:45.326Z,1015.51
2022-11-29T03:12:16.633Z,1015.51
2022-11-29T03:12:47.194Z,1015.51
2022-11-29T03:13:23.538Z,1015.51
2022-11-29T03:13:49.267Z,1015.71
2022-11-29T03:14:37.377Z,1015.71
2022-11-29T03:14:53.258Z,1015.61
2022-11-29T03:15:23.423Z,1015.61
2022-11-29T03:15:53.782Z,1015.61
2022-11-29T03:16:24.507Z,1015.61
2022-11-29T03:16:55.169Z,1015.71
2022-11-29T03:17:57.319Z,1015.92
2022-11-29T03:18:28.405Z,1015.92
2022-11-29T03:18:59.429Z,1015.51
2022-11-29T03:19:32.769Z,1015.51
2022-11-29T03:20:02.786Z,1015.71
2022-11-29T03:20:33.847Z,1015.71
2022-11-29T03:21:04.081Z,1015.71
2022-11-29T03:21:34.470Z,1015.71
2022-11-29T03:22:06.017Z,1015.71
2022-11-29T03:22:36.093Z,1015.71
2022-11-29T03:23:25.085Z,1015.71
2022-11-29T03:23:38.275Z,1015.71
2022-11-29T03:24:09.649Z,1015.71
2022-11-29T03:24:40.732Z,1015.71
2022-11-29T03:25:12.553Z,1015.81
2022-11-29T03:25:42.944Z,1015.71
2022-11-29T03:26:13.992Z,1015.71
2022-11-29T03:26:55.765Z,1015.81
2022-11-29T03:27:15.567Z,1015.81
2022-11-29T03:27:46.276Z,1015.92
2022-11-29T03:28:17.109Z,1015.92
2022-11-29T03:28:48.089Z,1015.81
2022-11-29T03:29:19.081Z,1015.81
2022-11-29T03:29:50.019Z,1015.51
2022-11-29T03:30:23.170Z,1015.51
2022-11-29T03:30:53.015Z,1015.61
2022-11-29T03:31:23.964Z,1015.61
2022-11-29T03:32:03.558Z,1015.81
2022-11-29T03:32:25.350Z,1015.81
2022-11-29T03:32:56.937Z,1015.98
2022-11-29T03:33:27.497Z,1015.98
2022-11-29T03:33:58.829Z,1015.71
2022-11-29T03:34:29.610Z,1015.71
2022-11-29T03:35:01.227Z,1015.71
2022-11-29T03:35:32.318Z,1015.71
2022-11-29T03:36:03.193Z,1015.71
2022-11-29T03:36:33.522Z,1015.71
2022-11-29T03:37:04.570Z,1015.61
2022-11-29T03:37:35.302Z,1015.61
2022-11-29T03:38:06.723Z,1015.81
2022-11-29T03:38:37.088Z,1015.81
2022-11-29T03:39:08.397Z,1015.81
2022-11-29T03:39:39.471Z,1015.81
2022-11-29T03:40:11.825Z,1015.71
2022-11-29T03:40:42.294Z,1015.71
2022-11-29T03:41:13.229Z,1015.92
2022-11-29T03:41:43.926Z,1015.71
2022-11-29T03:42:14.797Z,1015.71
2022-11-29T03:42:45.353Z,1015.92
2022-11-29T03:43:16.554Z,1015.92
2022-11-29T03:43:47.302Z,1015.92
2022-11-29T03:44:18.676Z,1015.92
2022-11-29T03:44:49.415Z,1015.92
2022-11-29T03:45:21.299Z,1015.92
2022-11-29T03:45:52.864Z,1015.81
2022-11-29T03:46:23.587Z,1015.81
2022-11-29T03:46:54.069Z,1015.92
2022-11-29T03:47:24.768Z,1015.92
2022-11-29T03:47:55.443Z,1015.81
2022-11-29T03:48:26.388Z,1015.81
2022-11-29T03:48:57.302Z,1015.92
2022-11-29T03:49:28.324Z,1015.92
2022-11-29T03:49:59.267Z,1015.71
2022-11-29T03:50:30.933Z,1015.71
2022-11-29T03:51:03.812Z,1016.08
2022-11-29T03:51:33.464Z,1016.08
2022-11-29T03:52:04.278Z,1015.81
2022-11-29T03:52:34.360Z,1015.81
2022-11-29T03:53:05.936Z,1015.98
2022-11-29T03:53:36.409Z,1015.98
2022-11-29T03:54:09.059Z,1015.81
2022-11-29T03:54:38.226Z,1015.81
2022-11-29T03:55:09.556Z,1015.81
2022-11-29T03:55:40.425Z,1015.81
2022-11-29T03:56:13.642Z,1015.81
2022-11-29T03:56:43.910Z,1015.92
2022-11-29T03:57:14.734Z,1015.92
2022-11-29T03:57:45.352Z,1016.19
2022-11-29T03:58:16.396Z,1016.19
2022-11-29T03:58:46.710Z,1015.98
2022-11-29T03:59:17.645Z,1015.98
2022-11-29T03:59:53.750Z,1015.98
2022-11-29T04:00:21.332Z,1015.98
2022-11-29T04:00:51.571Z,1015.98
2022-11-29T04:01:22.655Z,1015.98
2022-11-29T04:01:54.033Z,1015.98
2022-11-29T04:02:42.422Z,1015.98
2022-11-29T04:02:55.422Z,1015.98
2022-11-29T04:03:25.447Z,1015.98
2022-11-29T04:04:01.644Z,1016.08
2022-11-29T04:04:27.480Z,1016.08
2022-11-29T04:04:58.321Z,1015.92
2022-11-29T04:05:29.628Z,1015.92
2022-11-29T04:06:00.707Z,1015.98
2022-11-29T04:06:32.014Z,1015.98
2022-11-29T04:07:03.490Z,1015.98
2022-11-29T04:07:34.269Z,1015.98
2022-11-29T04:08:05.169Z,1015.81
2022-11-29T04:08:35.462Z,1015.81
2022-11-29T04:09:06.377Z,1016.08
2022-11-29T04:09:37.571Z,1016.08
2022-11-29T04:10:10.126Z,1015.92
2022-11-29T04:10:39.496Z,1015.92
2022-11-29T04:11:10.295Z,1015.92
2022-11-29T04:11:42.043Z,1015.92
2022-11-29T04:12:13.582Z,1015.98
2022-11-29T04:12:45.115Z,1015.92
2022-11-29T04:13:15.170Z,1015.92
2022-11-29T04:13:45.671Z,1015.98
2022-11-29T04:14:16.264Z,1015.98
2022-11-29T04:14:47.541Z,1015.92
2022-11-29T04:15:18.817Z,1015.92
2022-11-29T04:15:49.608Z,1015.71
2022-11-29T04:16:52.083Z,1015.98
2022-11-29T04:17:23.457Z,1015.98
2022-11-29T04:17:54.224Z,1015.92
2022-11-29T04:18:25.196Z,1015.92
2022-11-29T04:18:56.011Z,1015.81
2022-11-29T04:19:26.492Z,1015.81
2022-11-29T04:19:57.491Z,1015.81
2022-11-29T04:20:28.590Z,1015.81
2022-11-29T04:20:59.803Z,1015.92
2022-11-29T04:21:30.701Z,1015.92
2022-11-29T04:22:02.322Z,1015.81
2022-11-29T04:22:34.248Z,1015.81
2022-11-29T04:23:04.633Z,1015.92
2022-11-29T04:23:35.871Z,1015.92
2022-11-29T04:24:05.925Z,1015.81
2022-11-29T04:24:36.808Z,1015.81
2022-11-29T04:25:07.315Z,1015.98
2022-11-29T04:26:09.685Z,1016.08
2022-11-29T04:26:40.762Z,1016.08
2022-11-29T04:27:11.908Z,1015.98
2022-11-29T04:27:43.361Z,1015.92
2022-11-29T04:28:14.843Z,1015.92
2022-11-29T04:28:45.066Z,1015.81
2022-11-29T04:29:15.451Z,1015.81
2022-11-29T04:29:46.546Z,1015.98
2022-11-29T04:30:18.336Z,1015.98
2022-11-29T04:30:48.542Z,1015.92
2022-11-29T04:31:19.842Z,1015.92
2022-11-29T04:31:50.845Z,1016.19
2022-11-29T04:32:21.782Z,1016.19
2022-11-29T04:32:54.067Z,1015.98
2022-11-29T04:33:24.719Z,1015.98
2022-11-29T04:33:55.158Z,1016.08
2022-11-29T04:34:25.571Z,1016.08
2022-11-29T04:34:56.663Z,1015.98
2022-11-29T04:35:27.695Z,1015.98
2022-11-29T04:35:58.527Z,1015.98
2022-11-29T04:36:29.644Z,1015.98
2022-11-29T04:37:00.767Z,1015.92
2022-11-29T04:37:31.375Z,1015.92
2022-11-29T04:38:08.754Z,1015.98
2022-11-29T04:38:34.472Z,1015.98
2022-11-29T04:39:35.533Z,1015.98
2022-11-29T04:40:06.879Z,1016.08
2022-11-29T04:40:37.508Z,1016.08
2022-11-29T04:41:08.532Z,1015.98
2022-11-29T04:41:39.656Z,1015.98
2022-11-29T04:42:10.565Z,1015.98
2022-11-29T04:42:41.815Z,1015.98
2022-11-29T04:43:44.159Z,1016.08
2022-11-29T04:44:14.954Z,1016.08
2022-11-29T04:44:45.438Z,1016.08
2022-11-29T04:45:16.699Z,1016.08
2022-11-29T04:45:47.858Z,1016.08
2022-11-29T04:46:18.632Z,1016.08
2022-11-29T04:46:49.480Z,1015.81
2022-11-29T04:47:20.511Z,1015.81
2022-11-29T04:47:51.335Z,1015.92
2022-11-29T04:48:23.173Z,1015.92
2022-11-29T04:48:54.035Z,1015.98
2022-11-29T04:49:24.871Z,1015.98
2022-11-29T04:49:55.553Z,1016.19
2022-11-29T04:50:26.770Z,1016.19
2022-11-29T04:50:57.476Z,1015.98
2022-11-29T04:51:28.354Z,1015.98
2022-11-29T04:51:59.383Z,1016.19
2022-11-29T04:52:30.565Z,1016.19
2022-11-29T04:53:01.995Z,1016.08
2022-11-29T04:53:33.124Z,1016.08
2022-11-29T04:54:04.746Z,1015.98
2022-11-29T04:54:34.837Z,1015.98
2022-11-29T04:55:06.768Z,1016.08
2022-11-29T04:55:41.552Z,1016.08
2022-11-29T04:56:07.342Z,1015.98
2022-11-29T04:56:38.278Z,1015.98
2022-11-29T04:57:09.607Z,1016.08
2022-11-29T04:57:40.538Z,1016.08
2022-11-29T04:58:11.347Z,1015.98
2022-11-29T04:58:43.649Z,1016.29
2022-11-29T04:59:13.905Z,1016.29
2022-11-29T04:59:45.040Z,1016.08
2022-11-29T05:00:16.101Z,1016.08
2022-11-29T05:00:46.540Z,1016.19
2022-11-29T05:01:18.314Z,1016.19
2022-11-29T05:01:48.929Z,1016.29
2022-11-29T05:02:19.645Z,1016.29
2022-11-29T05:02:50.423Z,1016.19
2022-11-29T05:03:21.839Z,1016.19
2022-11-29T05:03:56.836Z,1016.19
2022-11-29T05:04:23.768Z,1016.19
2022-11-29T05:04:54.667Z,1016.29
2022-11-29T05:05:25.723Z,1016.29
2022-11-29T05:05:57.366Z,1016.29
2022-11-29T05:06:27.844Z,1016.29
2022-11-29T05:06:58.534Z,1016.19
2022-11-29T05:07:29.769Z,1016.19
2022-11-29T05:08:00.807Z,1016.19
2022-11-29T05:08:31.638Z,1016.19
2022-11-29T05:09:02.850Z,1016.19
2022-11-29T05:09:33.663Z,1016.19
2022-11-29T05:10:04.706Z,1016.29
2022-11-29T05:10:35.803Z,1016.29
2022-11-29T05:11:07.152Z,1016.49
2022-11-29T05:11:38.658Z,1016.49
2022-11-29T05:12:08.633Z,1016.19
2022-11-29T05:12:39.596Z,1016.19
2022-11-29T05:13:13.736Z,1016.39
2022-11-29T05:13:41.571Z,1016.39
2022-11-29T05:14:12.582Z,1016.39
2022-11-29T05:14:44.289Z,1016.19
2022-11-29T05:15:14.968Z,1016.19
2022-11-29T05:15:45.621Z,1016.39
2022-11-29T05:16:17.254Z,1016.39
2022-11-29T05:16:48.111Z,1016.29
2022-11-29T05:17:18.653Z,1016.29
2022-11-29T05:17:49.962Z,1016.29
2022-11-29T05:18:20.483Z,1016.29
2022-11-29T05:18:51.911Z,1016.39
2022-11-29T05:19:22.423Z,1016.39
2022-11-29T05:19:53.734Z,1016.39
2022-11-29T05:20:24.844Z,1016.39
2022-11-29T05:21:13.254Z,1016.19
2022-11-29T05:21:26.804Z,1016.19
2022-11-29T05:22:29.134Z,1016.39
2022-11-29T05:22:59.841Z,1016.49
2022-11-29T05:23:30.528Z,1016.49
2022-11-29T05:24:02.032Z,1016.19
2022-11-29T05:24:32.492Z,1016.19
2022-11-29T05:25:04.236Z,1016.39
2022-11-29T05:25:39.705Z,1016.39
2022-11-29T05:26:06.361Z,1016.39
2022-11-29T05:26:37.699Z,1016.39
2022-11-29T05:27:08.001Z,1016.49
2022-11-29T05:27:56.317Z,1016.39
2022-11-29T05:28:10.393Z,1016.39
2022-11-29T05:28:40.611Z,1016.39
2022-11-29T05:29:42.465Z,1016.49
2022-11-29T05:30:14.500Z,1016.49
2022-11-29T05:30:45.020Z,1016.49
2022-11-29T05:31:15.733Z,1016.49
2022-11-29T05:31:47.559Z,1016.39
2022-11-29T05:32:18.198Z,1016.39
2022-11-29T05:32:48.972Z,1016.39
2022-11-29T05:33:19.670Z,1016.39
2022-11-29T05:33:50.715Z,1016.39
2022-11-29T05:34:21.705Z,1016.39
2022-11-29T05:34:52.909Z,1016.49
2022-11-29T05:35:23.620Z,1016.49
2022-11-29T05:35:54.901Z,1016.49
2022-11-29T05:36:25.561Z,1016.49
2022-11-29T05:36:56.584Z,1016.39
2022-11-29T05:37:27.961Z,1016.39
2022-11-29T05:37:58.872Z,1016.49
2022-11-29T05:38:29.773Z,1016.49
2022-11-29T05:39:00.955Z,1016.49
2022-11-29T05:39:31.773Z,1016.49
2022-11-29T05:40:02.856Z,1016.49
2022-11-29T05:40:33.812Z,1016.49
2022-11-29T05:41:05.185Z,1016.59
2022-11-29T05:42:07.603Z,1016.59
2022-11-29T05:42:38.178Z,1016.59
2022-11-29T05:43:08.937Z,1016.49
2022-11-29T05:43:49.511Z,1016.49
2022-11-29T05:44:10.802Z,1016.49
2022-11-29T05:44:41.564Z,1016.49
2022-11-29T05:45:13.224Z,1016.59
2022-11-29T05:45:48.659Z,1016.49
2022-11-29T05:46:14.718Z,1016.49
2022-11-29T05:46:46.387Z,1016.49
2022-11-29T05:47:17.330Z,1016.49
2022-11-29T05:48:19.012Z,1016.59
2022-11-29T05:49:20.928Z,1016.49
2022-11-29T05:49:51.808Z,1016.49
2022-11-29T05:50:22.869Z,1016.49
2022-11-29T05:50:53.735Z,1016.59
2022-11-29T05:51:24.861Z,1016.59
2022-11-29T05:51:55.829Z,1016.49
2022-11-29T05:52:27.331Z,1016.49
2022-11-29T05:52:58.530Z,1016.59
2022-11-29T05:53:28.929Z,1016.59
2022-11-29T05:53:59.845Z,1016.59
2022-11-29T05:54:30.990Z,1016.59
2022-11-29T05:55:02.089Z,1016.59
2022-11-29T05:55:32.745Z,1016.59
2022-11-29T05:56:04.142Z,1016.49
2022-11-29T05:56:35.146Z,1016.49
2022-11-29T05:57:08.003Z,1016.59
2022-11-29T05:57:37.529Z,1016.59
2022-11-29T05:58:07.756Z,1016.69
2022-11-29T05:58:38.920Z,1016.69
2022-11-29T05:59:10.316Z,1016.80
2022-11-29T05:59:40.871Z,1016.80
2022-11-29T06:00:12.644Z,1016.49
2022-11-29T06:00:42.617Z,1016.69
2022-11-29T06:01:13.772Z,1016.69
2022-11-29T06:01:44.910Z,1016.49
2022-11-29T06:02:15.942Z,1016.49
2022-11-29T06:02:47.511Z,1016.59
2022-11-29T06:03:18.238Z,1016.59
2022-11-29T06:03:48.670Z,1016.69
2022-11-29T06:04:19.664Z,1016.69
2022-11-29T06:04:50.664Z,1016.59
2022-11-29T06:05:21.850Z,1016.59
2022-11-29T06:05:52.818Z,1016.69
2022-11-29T06:06:23.983Z,1016.69
2022-11-29T06:06:54.952Z,1016.69
2022-11-29T06:07:26.396Z,1016.69
2022-11-29T06:07:57.560Z,1016.69
2022-11-29T06:08:28.101Z,1016.69
2022-11-29T06:08:58.811Z,1016.69
2022-11-29T06:09:29.755Z,1016.69
2022-11-29T06:10:01.845Z,1016.59
2022-11-29T06:10:48.871Z,1016.80
2022-11-29T06:11:02.948Z,1016.80
2022-11-29T06:11:34.246Z,1016.80
2022-11-29T06:12:04.946Z,1016.80
2022-11-29T06:12:35.777Z,1016.80
2022-11-29T06:13:17.377Z,1016.69
2022-11-29T06:13:53.631Z,1016.69
2022-11-29T06:14:08.879Z,1016.49
2022-11-29T06:14:39.979Z,1016.49
2022-11-29T06:15:25.070Z,1016.80
2022-11-29T06:15:41.895Z,1016.90
2022-11-29T06:16:12.858Z,1016.90
2022-11-29T06:16:44.072Z,1016.80
2022-11-29T06:17:14.708Z,1016.80
2022-11-29T06:17:46.139Z,1016.90
2022-11-29T06:18:17.211Z,1016.90
2022-11-29T06:18:48.502Z,1016.80
2022-11-29T06:19:18.657Z,1016.80
2022-11-29T06:19:49.672Z,1017.00
2022-11-29T06:20:39.059Z,1017.00
2022-11-29T06:20:51.849Z,1016.80
2022-11-29T06:21:22.901Z,1016.80
2022-11-29T06:22:03.783Z,1016.90
2022-11-29T06:22:24.927Z,1016.90
2022-11-29T06:22:55.911Z,1016.90
2022-11-29T06:23:27.631Z,1016.90
2022-11-29T06:24:28.903Z,1016.69
2022-11-29T06:24:59.990Z,1016.90